createdAt,value
2023-03-31T00:00:54.067Z,61.90
2023-03-31T00:03:23.860Z,62.70
2023-03-31T00:05:58.229Z,72.80
2023-03-31T00:08:30.041Z,81.60
2023-03-31T00:11:01.012Z,68.23
2023-03-31T00:13:31.095Z,59.30
2023-03-31T00:15:59.990Z,71.77
2023-03-31T00:18:27.724Z,82.17
2023-03-31T00:20:58.226Z,81.27
2023-03-31T00:23:29.116Z,58.10
2023-03-31T00:25:56.833Z,55.50
2023-03-31T00:28:24.544Z,57.30
2023-03-31T00:30:53.680Z,68.00
2023-03-31T00:33:21.256Z,65.10
2023-03-31T00:35:52.472Z,53.43
2023-03-31T00:38:22.049Z,68.37
2023-03-31T00:40:51.244Z,69.27
2023-03-31T00:43:32.235Z,64.50
2023-03-31T00:46:08.697Z,59.50
2023-03-31T00:48:38.618Z,66.13
2023-03-31T00:51:08.695Z,53.40
2023-03-31T00:53:37.913Z,62.40
2023-03-31T00:56:10.407Z,68.23
2023-03-31T00:58:43.899Z,60.50
2023-03-31T01:01:17.164Z,67.97
2023-03-31T01:03:46.741Z,52.10
2023-03-31T01:06:16.795Z,59.30
2023-03-31T01:08:45.397Z,59.13
2023-03-31T01:11:16.372Z,54.20
2023-03-31T01:13:45.953Z,57.63
2023-03-31T01:16:14.960Z,56.20
2023-03-31T01:18:46.467Z,57.50
2023-03-31T01:21:47.982Z,55.37
2023-03-31T01:25:01.446Z,53.50
2023-03-31T01:27:50.881Z,64.87
2023-03-31T01:30:38.552Z,56.20
2023-03-31T01:33:39.770Z,61.53
2023-03-31T01:36:23.446Z,56.43
2023-03-31T01:39:22.603Z,62.67
2023-03-31T01:41:59.308Z,56.50
2023-03-31T01:44:34.445Z,57.37
2023-03-31T01:47:06.069Z,60.37
2023-03-31T01:49:42.535Z,58.50
2023-03-31T01:52:20.501Z,57.13
2023-03-31T01:54:52.117Z,60.83
2023-03-31T01:57:28.907Z,59.27
2023-03-31T02:00:05.603Z,63.03
2023-03-31T02:02:38.642Z,63.10
2023-03-31T02:05:11.591Z,59.73
2023-03-31T02:07:44.155Z,58.80
2023-03-31T02:10:14.306Z,59.83
2023-03-31T02:12:45.622Z,57.50
2023-03-31T02:15:19.793Z,58.53
2023-03-31T02:17:50.817Z,57.80
2023-03-31T02:20:21.133Z,65.53
2023-03-31T02:22:53.493Z,58.10
2023-03-31T02:25:24.797Z,74.20
2023-03-31T02:27:57.761Z,60.50
2023-03-31T02:30:30.735Z,62.80
2023-03-31T02:32:59.837Z,70.63
2023-03-31T02:35:27.671Z,58.93
2023-03-31T02:37:55.465Z,80.10
2023-03-31T02:40:27.571Z,57.93
2023-03-31T02:42:57.101Z,57.40
2023-03-31T02:45:45.744Z,55.83
2023-03-31T02:48:19.143Z,58.40
2023-03-31T02:51:03.765Z,57.97
2023-03-31T02:53:44.563Z,66.40
2023-03-31T02:56:28.017Z,59.30
2023-03-31T02:59:13.899Z,55.97
2023-03-31T03:01:52.708Z,55.07
2023-03-31T03:04:37.276Z,53.37
2023-03-31T03:07:14.270Z,55.07
2023-03-31T03:09:52.319Z,61.90
2023-03-31T03:12:26.160Z,54.17
2023-03-31T03:15:01.552Z,55.80
2023-03-31T03:17:34.676Z,59.53
2023-03-31T03:20:07.881Z,55.10
2023-03-31T03:22:36.283Z,54.53
2023-03-31T03:25:04.801Z,59.80
2023-03-31T03:27:32.749Z,58.30
2023-03-31T03:30:02.641Z,58.27
2023-03-31T03:32:30.340Z,60.90
2023-03-31T03:34:58.074Z,62.60
2023-03-31T03:37:25.806Z,63.47
2023-03-31T03:39:53.495Z,61.90
2023-03-31T03:42:21.213Z,53.67
2023-03-31T03:44:48.810Z,59.63
2023-03-31T03:47:17.856Z,54.57
2023-03-31T03:49:45.478Z,52.47
2023-03-31T03:52:13.021Z,51.63
2023-03-31T03:54:40.595Z,50.53
2023-03-31T03:57:08.528Z,50.83
2023-03-31T03:59:36.338Z,50.23
2023-03-31T04:02:03.969Z,52.27
2023-03-31T04:04:33.025Z,53.57
2023-03-31T04:07:00.731Z,51.50
2023-03-31T04:09:28.724Z,53.60
2023-03-31T04:11:56.689Z,51.43
2023-03-31T04:14:25.860Z,61.13
2023-03-31T04:16:56.192Z,51.20
2023-03-31T04:19:25.930Z,61.73
2023-03-31T04:21:59.058Z,53.07
2023-03-31T04:24:30.579Z,53.30
2023-03-31T04:26:58.610Z,51.50
2023-03-31T04:29:27.443Z,52.73
2023-03-31T04:31:58.905Z,54.03
2023-03-31T04:34:34.918Z,56.07
2023-03-31T04:37:04.480Z,64.33
2023-03-31T04:39:32.378Z,52.03
2023-03-31T04:42:01.388Z,51.97
2023-03-31T04:44:29.737Z,63.50
2023-03-31T04:46:58.799Z,54.13
2023-03-31T04:49:26.503Z,54.17
2023-03-31T04:51:54.112Z,54.60
2023-03-31T04:54:23.187Z,55.40
2023-03-31T04:56:50.923Z,51.83
2023-03-31T04:59:18.517Z,54.37
2023-03-31T05:01:46.226Z,59.33
2023-03-31T05:04:14.111Z,55.67
2023-03-31T05:06:41.704Z,54.97
2023-03-31T05:09:09.862Z,60.40
2023-03-31T05:11:39.001Z,51.70
2023-03-31T05:14:06.766Z,54.43
2023-03-31T05:16:34.863Z,53.50
2023-03-31T05:19:02.838Z,52.27
2023-03-31T05:21:31.265Z,53.80
2023-03-31T05:23:59.225Z,53.73
2023-03-31T05:26:27.242Z,51.17
2023-03-31T05:28:56.269Z,52.67
2023-03-31T05:31:24.510Z,51.87
2023-03-31T05:33:52.205Z,51.10
2023-03-31T05:36:19.903Z,49.87
2023-03-31T05:38:47.915Z,51.43
2023-03-31T05:41:16.906Z,52.10
2023-03-31T05:43:44.667Z,52.33
2023-03-31T05:46:13.985Z,62.70
2023-03-31T05:48:42.446Z,49.80
2023-03-31T05:51:10.233Z,51.07
2023-03-31T05:53:37.902Z,50.90
2023-03-31T05:56:07.932Z,53.90
2023-03-31T05:58:36.736Z,50.83
2023-03-31T06:01:07.304Z,51.03
2023-03-31T06:03:37.853Z,51.40
2023-03-31T06:06:07.767Z,51.00
2023-03-31T06:08:36.138Z,48.83
2023-03-31T06:11:06.134Z,49.43
2023-03-31T06:13:34.142Z,48.63
2023-03-31T06:16:02.827Z,50.93
2023-03-31T06:18:32.046Z,50.73
2023-03-31T06:21:01.434Z,49.53
2023-03-31T06:23:29.225Z,50.60
2023-03-31T06:26:02.096Z,49.87
2023-03-31T06:28:30.071Z,50.47
2023-03-31T06:31:02.245Z,50.53
2023-03-31T06:33:29.931Z,52.20
2023-03-31T06:35:59.468Z,50.33
2023-03-31T06:38:29.056Z,51.17
2023-03-31T06:40:56.776Z,51.30
2023-03-31T06:43:24.646Z,48.93
2023-03-31T06:45:54.120Z,52.40
2023-03-31T06:48:23.485Z,51.37
2023-03-31T06:50:51.118Z,50.40
2023-03-31T06:53:18.825Z,50.57
2023-03-31T06:55:47.743Z,50.07
2023-03-31T06:58:15.704Z,50.10
2023-03-31T07:00:45.824Z,49.23
2023-03-31T07:03:14.920Z,51.13
2023-03-31T07:05:42.583Z,48.83
2023-03-31T07:08:10.618Z,49.40
2023-03-31T07:10:38.336Z,49.03
2023-03-31T07:13:07.382Z,51.40
2023-03-31T07:15:35.045Z,49.53
2023-03-31T07:18:03.072Z,50.43
2023-03-31T07:20:32.665Z,51.93
2023-03-31T07:23:00.288Z,51.67
2023-03-31T07:25:27.952Z,50.53
2023-03-31T07:27:55.568Z,52.73
2023-03-31T07:30:24.774Z,51.90
2023-03-31T07:32:54.728Z,51.57
2023-03-31T07:35:23.971Z,48.83
2023-03-31T07:37:52.753Z,51.93
2023-03-31T07:40:23.626Z,51.10
2023-03-31T07:42:52.257Z,51.50
2023-03-31T07:45:21.477Z,50.93
2023-03-31T07:47:50.739Z,52.40
2023-03-31T07:50:19.439Z,53.93
2023-03-31T07:52:47.615Z,52.27
2023-03-31T07:55:16.507Z,54.43
2023-03-31T07:57:46.248Z,53.80
2023-03-31T08:00:16.109Z,53.53
2023-03-31T08:02:44.703Z,53.70
2023-03-31T08:05:15.603Z,52.77
2023-03-31T08:07:45.885Z,54.90
2023-03-31T08:10:16.245Z,54.80
2023-03-31T08:12:44.059Z,53.70
2023-03-31T08:15:12.540Z,54.30
2023-03-31T08:17:40.694Z,54.83
2023-03-31T08:20:10.459Z,53.50
2023-03-31T08:22:41.579Z,55.77
2023-03-31T08:25:10.339Z,53.27
2023-03-31T08:27:39.684Z,53.53
2023-03-31T08:30:09.868Z,60.17
2023-03-31T08:32:38.336Z,54.17
2023-03-31T08:35:07.147Z,54.20
2023-03-31T08:37:34.809Z,54.73
2023-03-31T08:40:05.389Z,52.50
2023-03-31T08:42:39.419Z,52.43
2023-03-31T08:45:16.774Z,54.57
2023-03-31T08:47:47.276Z,54.40
2023-03-31T08:50:18.047Z,52.93
2023-03-31T08:52:51.312Z,52.83
2023-03-31T08:55:26.612Z,55.60
2023-03-31T08:58:00.950Z,53.80
2023-03-31T09:00:41.602Z,54.40
2023-03-31T09:03:16.565Z,53.53
2023-03-31T09:05:59.579Z,52.27
2023-03-31T09:08:37.589Z,52.47
2023-03-31T09:11:14.414Z,53.70
2023-03-31T09:14:07.004Z,52.17
2023-03-31T09:16:39.829Z,53.27
2023-03-31T09:19:15.424Z,54.73
2023-03-31T09:21:45.821Z,54.70
2023-03-31T09:24:19.934Z,54.93
2023-03-31T09:26:53.352Z,54.03
2023-03-31T09:29:29.513Z,54.40
2023-03-31T09:32:02.992Z,54.00
2023-03-31T09:34:33.190Z,53.17
2023-03-31T09:37:01.232Z,53.50
2023-03-31T09:39:28.852Z,53.97
2023-03-31T09:41:57.841Z,55.47
2023-03-31T09:44:38.029Z,54.60
2023-03-31T09:47:11.306Z,51.87
2023-03-31T09:49:41.645Z,52.60
2023-03-31T09:52:30.359Z,53.67
2023-03-31T09:55:02.099Z,53.07
2023-03-31T09:57:34.020Z,53.50
2023-03-31T10:00:14.588Z,54.03
2023-03-31T10:02:45.714Z,51.07
2023-03-31T10:05:31.200Z,53.27
2023-03-31T10:08:21.380Z,50.77
2023-03-31T10:10:51.426Z,52.07
2023-03-31T10:13:23.724Z,54.87
2023-03-31T10:15:54.321Z,50.67
2023-03-31T10:18:32.334Z,51.87
2023-03-31T10:21:01.260Z,49.33
2023-03-31T10:23:32.303Z,49.70
2023-03-31T10:26:01.580Z,47.40
2023-03-31T10:28:33.148Z,49.60
2023-03-31T10:31:03.062Z,43.90
2023-03-31T10:33:34.643Z,46.47
2023-03-31T10:36:08.264Z,46.47
2023-03-31T10:38:40.121Z,45.93
2023-03-31T10:41:08.323Z,45.77
2023-03-31T10:43:41.579Z,44.37
2023-03-31T10:46:10.622Z,45.90
2023-03-31T10:48:41.384Z,44.37
2023-03-31T10:51:15.801Z,46.57
2023-03-31T10:53:45.023Z,46.80
2023-03-31T10:56:36.140Z,49.23
2023-03-31T10:59:30.921Z,46.03
2023-03-31T11:02:23.907Z,46.07
2023-03-31T11:05:06.360Z,47.47
2023-03-31T11:07:49.569Z,46.57
2023-03-31T11:10:38.286Z,46.87
2023-03-31T11:13:12.551Z,43.73
2023-03-31T11:15:51.864Z,46.30
2023-03-31T11:18:37.495Z,46.17
2023-03-31T11:21:18.006Z,47.53
2023-03-31T11:23:51.873Z,42.37
2023-03-31T11:26:28.724Z,42.77
2023-03-31T11:29:16.319Z,42.73
2023-03-31T11:31:52.731Z,43.43
2023-03-31T11:34:48.837Z,41.43
2023-03-31T11:37:31.669Z,39.33
2023-03-31T11:40:14.536Z,41.83
2023-03-31T11:42:50.519Z,41.80
2023-03-31T11:45:22.730Z,40.30
2023-03-31T11:47:57.542Z,40.17
2023-03-31T11:50:29.809Z,40.87
2023-03-31T11:53:01.661Z,38.90
2023-03-31T11:55:32.388Z,38.57
2023-03-31T11:58:05.243Z,38.73
2023-03-31T12:00:38.195Z,39.10
2023-03-31T12:03:13.549Z,34.33
2023-03-31T12:05:46.188Z,37.60
2023-03-31T12:08:18.477Z,34.57
2023-03-31T12:10:51.309Z,35.03
2023-03-31T12:13:35.102Z,35.20
2023-03-31T12:16:07.548Z,36.10
2023-03-31T12:18:42.285Z,34.63
2023-03-31T12:21:11.401Z,34.47
2023-03-31T12:23:44.073Z,35.60
2023-03-31T12:26:23.395Z,35.53
2023-03-31T12:28:57.171Z,35.60
2023-03-31T12:31:27.238Z,31.90
2023-03-31T12:34:01.133Z,34.83
2023-03-31T12:36:43.079Z,33.57
2023-03-31T12:39:26.392Z,34.00
2023-03-31T12:42:07.304Z,32.83
2023-03-31T12:44:53.196Z,34.07
2023-03-31T12:47:41.913Z,32.87
2023-03-31T12:50:28.161Z,34.77
2023-03-31T12:53:06.183Z,31.27
2023-03-31T12:55:39.030Z,34.07
2023-03-31T12:58:42.373Z,30.40
2023-03-31T13:01:14.732Z,31.00
2023-03-31T13:03:48.948Z,35.10
2023-03-31T13:06:59.415Z,31.27
2023-03-31T13:09:46.399Z,32.17
2023-03-31T13:12:19.915Z,31.43
2023-03-31T13:14:49.558Z,31.03
2023-03-31T13:17:27.132Z,28.90
2023-03-31T13:19:56.186Z,28.67
2023-03-31T13:22:36.175Z,29.70
2023-03-31T13:25:43.589Z,29.20
2023-03-31T13:28:30.485Z,31.57
2023-03-31T13:31:02.038Z,30.97
2023-03-31T13:33:53.897Z,29.70
2023-03-31T13:36:41.707Z,29.73
2023-03-31T13:39:32.703Z,31.20
2023-03-31T13:42:12.728Z,30.53
2023-03-31T13:45:06.403Z,30.07
2023-03-31T13:48:00.166Z,30.30
2023-03-31T13:50:47.168Z,30.07
2023-03-31T13:53:29.138Z,31.83
2023-03-31T13:56:08.889Z,31.03
2023-03-31T13:59:04.324Z,30.13
2023-03-31T14:01:46.934Z,29.93
2023-03-31T14:04:31.291Z,28.43
2023-03-31T14:07:03.066Z,30.70
2023-03-31T14:09:34.183Z,32.20
2023-03-31T14:12:03.049Z,30.80
2023-03-31T14:14:30.909Z,30.30
2023-03-31T14:17:02.605Z,28.83
2023-03-31T14:20:07.967Z,31.80
2023-03-31T14:22:47.928Z,28.17
2023-03-31T14:25:24.058Z,27.67
2023-03-31T14:28:02.389Z,27.50
2023-03-31T14:30:42.482Z,26.30
2023-03-31T14:33:25.100Z,25.70
2023-03-31T14:35:59.430Z,26.03
2023-03-31T14:38:29.872Z,26.03
2023-03-31T14:41:01.024Z,26.83
2023-03-31T14:43:30.671Z,24.30
2023-03-31T14:45:59.851Z,25.30
2023-03-31T14:48:30.564Z,25.63
2023-03-31T14:50:59.933Z,24.90
2023-03-31T14:53:28.258Z,24.70
2023-03-31T14:56:02.176Z,24.57
2023-03-31T14:58:34.649Z,23.53
2023-03-31T15:01:05.110Z,24.47
2023-03-31T15:03:36.247Z,23.73
2023-03-31T15:06:05.885Z,23.67
2023-03-31T15:08:36.817Z,24.20
2023-03-31T15:11:13.122Z,23.63
2023-03-31T15:13:53.431Z,24.60
2023-03-31T15:16:32.582Z,25.20
2023-03-31T15:19:06.362Z,25.57
2023-03-31T15:21:38.890Z,25.23
2023-03-31T15:24:07.931Z,25.03
2023-03-31T15:26:41.477Z,24.70
2023-03-31T15:29:14.790Z,24.20
2023-03-31T15:31:42.668Z,23.80
2023-03-31T15:34:16.964Z,23.07
2023-03-31T15:36:45.087Z,23.80
2023-03-31T15:39:14.549Z,23.43
2023-03-31T15:41:43.538Z,24.77
2023-03-31T15:44:36.260Z,24.77
2023-03-31T15:47:08.791Z,23.90
2023-03-31T15:49:37.998Z,23.33
2023-03-31T15:52:06.013Z,23.30
2023-03-31T15:54:38.940Z,22.87
2023-03-31T15:57:08.020Z,22.53
2023-03-31T16:02:24.094Z,25.70
2023-03-31T16:04:57.998Z,22.20
2023-03-31T16:07:28.229Z,22.37
2023-03-31T16:10:00.727Z,22.43
2023-03-31T16:12:32.664Z,22.43
2023-03-31T16:15:05.802Z,23.50
2023-03-31T16:17:37.935Z,23.13
2023-03-31T16:20:12.098Z,23.77
2023-03-31T16:22:44.686Z,22.67
2023-03-31T16:25:14.774Z,23.77
2023-03-31T16:27:45.014Z,23.90
2023-03-31T16:30:15.518Z,24.77
2023-03-31T16:33:02.910Z,24.70
2023-03-31T16:35:34.126Z,23.53
2023-03-31T16:38:02.861Z,22.57
2023-03-31T16:40:32.736Z,23.50
2023-03-31T16:43:14.343Z,23.93
2023-03-31T16:45:45.100Z,23.33
2023-03-31T16:48:17.106Z,21.87
2023-03-31T16:50:48.415Z,23.27
2023-03-31T16:53:17.627Z,22.77
2023-03-31T16:55:45.598Z,22.13
2023-03-31T16:58:13.549Z,23.20
2023-03-31T17:00:41.371Z,23.20
2023-03-31T17:03:10.914Z,23.47
2023-03-31T17:05:39.856Z,23.87
2023-03-31T17:08:10.058Z,23.80
2023-03-31T17:10:38.772Z,22.70
2023-03-31T17:13:08.865Z,24.67
2023-03-31T17:15:37.883Z,24.50
2023-03-31T17:18:07.281Z,25.90
2023-03-31T17:20:35.460Z,27.47
2023-03-31T17:23:04.322Z,25.50
2023-03-31T17:25:34.446Z,25.03
2023-03-31T17:28:02.063Z,26.73
2023-03-31T17:30:29.898Z,27.60
2023-03-31T17:32:58.351Z,28.33
2023-03-31T17:35:26.279Z,27.77
2023-03-31T17:37:55.147Z,30.30
2023-03-31T17:40:24.685Z,27.57
2023-03-31T17:42:54.348Z,27.13
2023-03-31T17:45:22.110Z,26.40
2023-03-31T17:47:50.228Z,26.93
2023-03-31T17:50:18.216Z,27.70
2023-03-31T17:52:45.793Z,28.33
2023-03-31T17:55:14.457Z,28.27
2023-03-31T17:57:42.144Z,29.90
2023-03-31T18:00:15.058Z,31.00
2023-03-31T18:02:43.897Z,29.30
2023-03-31T18:05:12.102Z,30.07
2023-03-31T18:07:39.822Z,30.30
2023-03-31T18:10:08.557Z,29.90
2023-03-31T18:12:36.719Z,30.30
2023-03-31T18:15:06.947Z,30.43
2023-03-31T18:17:36.498Z,30.47
2023-03-31T18:20:05.418Z,31.33
2023-03-31T18:22:33.088Z,32.93
2023-03-31T18:25:00.757Z,33.20
2023-03-31T18:27:28.375Z,33.17
2023-03-31T18:29:56.062Z,34.00
2023-03-31T18:32:23.757Z,34.40
2023-03-31T18:34:52.814Z,32.93
2023-03-31T18:37:20.826Z,33.13
2023-03-31T18:39:48.438Z,33.07
2023-03-31T18:42:18.312Z,32.10
2023-03-31T18:44:46.419Z,31.57
2023-03-31T18:47:14.461Z,31.90
2023-03-31T18:49:42.678Z,31.40
2023-03-31T18:52:11.817Z,33.40
2023-03-31T18:54:39.418Z,32.83
2023-03-31T18:57:07.414Z,32.97
2023-03-31T18:59:35.104Z,32.97
2023-03-31T19:02:02.798Z,33.30
2023-03-31T19:04:30.915Z,33.27
2023-03-31T19:06:58.559Z,34.53
2023-03-31T19:09:27.905Z,32.77
2023-03-31T19:11:57.165Z,33.67
2023-03-31T19:14:25.109Z,33.20
2023-03-31T19:16:52.907Z,32.83
2023-03-31T19:19:20.653Z,32.87
2023-03-31T19:21:48.497Z,32.40
2023-03-31T19:24:16.858Z,32.70
2023-03-31T19:26:45.836Z,33.63
2023-03-31T19:29:13.500Z,34.77
2023-03-31T19:31:41.502Z,33.30
2023-03-31T19:34:11.512Z,32.30
2023-03-31T19:36:40.135Z,34.30
2023-03-31T19:39:08.232Z,33.77
2023-03-31T19:41:36.698Z,33.87
2023-03-31T19:44:05.805Z,34.73
2023-03-31T19:46:33.642Z,35.10
2023-03-31T19:49:01.444Z,33.90
2023-03-31T19:51:29.051Z,34.30
2023-03-31T19:53:56.953Z,35.83
2023-03-31T19:56:27.006Z,34.43
2023-03-31T19:58:54.718Z,35.30
2023-03-31T20:01:26.026Z,35.90
2023-03-31T20:03:56.372Z,35.53
2023-03-31T20:06:26.423Z,37.40
2023-03-31T20:08:55.891Z,36.40
2023-03-31T20:11:24.527Z,36.77
2023-03-31T20:13:52.396Z,37.73
2023-03-31T20:16:22.369Z,37.93
2023-03-31T20:18:57.204Z,38.50
2023-03-31T20:21:27.159Z,38.53
2023-03-31T20:23:56.365Z,39.40
2023-03-31T20:26:26.326Z,38.43
2023-03-31T20:28:55.916Z,39.43
2023-03-31T20:31:25.553Z,39.83
2023-03-31T20:33:57.072Z,40.27
2023-03-31T20:36:27.103Z,40.57
2023-03-31T20:38:54.924Z,38.20
2023-03-31T20:41:24.669Z,37.60
2023-03-31T20:43:52.318Z,39.13
2023-03-31T20:46:20.194Z,40.03
2023-03-31T20:48:49.660Z,40.20
2023-03-31T20:51:20.813Z,40.80
2023-03-31T20:53:50.256Z,40.27
2023-03-31T20:56:19.984Z,41.10
2023-03-31T20:58:49.023Z,43.67
2023-03-31T21:01:19.724Z,45.40
2023-03-31T21:03:47.911Z,47.30
2023-03-31T21:06:18.528Z,46.27
2023-03-31T21:08:47.552Z,47.30
2023-03-31T21:11:15.391Z,48.10
2023-03-31T21:13:44.674Z,48.40
2023-03-31T21:16:12.874Z,50.43
2023-03-31T21:18:40.500Z,49.67
2023-03-31T21:21:11.139Z,49.77
2023-03-31T21:23:40.592Z,51.50
2023-03-31T21:26:09.915Z,52.00
2023-03-31T21:28:39.095Z,52.93
2023-03-31T21:31:08.057Z,54.50
2023-03-31T21:33:38.440Z,52.03
2023-03-31T21:36:07.732Z,53.83
2023-03-31T21:38:36.219Z,57.40
2023-03-31T21:41:07.942Z,57.23
2023-03-31T21:43:35.918Z,59.17
2023-03-31T21:46:03.667Z,60.33
2023-03-31T21:48:31.864Z,61.03
2023-03-31T21:51:00.652Z,65.77
2023-03-31T21:53:30.152Z,64.60
2023-03-31T21:55:58.546Z,63.77
2023-03-31T21:58:29.659Z,65.50
2023-03-31T22:00:58.952Z,66.87
2023-03-31T22:03:28.752Z,62.50
2023-03-31T22:05:57.121Z,64.20
2023-03-31T22:08:25.315Z,61.20
2023-03-31T22:10:53.669Z,57.87
2023-03-31T22:13:22.095Z,60.37
2023-03-31T22:15:51.484Z,59.50
2023-03-31T22:18:19.864Z,56.43
2023-03-31T22:20:48.412Z,59.13
2023-03-31T22:23:16.736Z,59.73
2023-03-31T22:25:44.694Z,58.73
2023-03-31T22:28:12.712Z,59.47
2023-03-31T22:30:40.464Z,62.67
2023-03-31T22:33:09.477Z,61.90
2023-03-31T22:35:37.305Z,64.13
2023-03-31T22:38:06.350Z,67.30
2023-03-31T22:40:35.779Z,69.83
2023-03-31T22:43:03.891Z,72.07
2023-03-31T22:45:31.687Z,87.47
2023-03-31T22:47:59.672Z,86.43
2023-03-31T22:50:28.702Z,102.00
2023-03-31T22:52:56.629Z,81.63
2023-03-31T22:55:24.325Z,89.23
2023-03-31T22:57:51.962Z,75.83
2023-03-31T23:00:20.210Z,76.97
2023-03-31T23:02:47.900Z,74.80
2023-03-31T23:05:15.729Z,73.33
2023-03-31T23:07:44.775Z,67.63
2023-03-31T23:10:12.545Z,67.23
2023-03-31T23:12:40.201Z,70.07
2023-03-31T23:15:09.161Z,68.13
2023-03-31T23:17:36.882Z,74.07
2023-03-31T23:20:06.354Z,77.27
2023-03-31T23:22:34.932Z,75.23
2023-03-31T23:25:04.363Z,81.87
2023-03-31T23:27:32.253Z,91.97
2023-03-31T23:30:00.363Z,82.03
2023-03-31T23:32:29.908Z,83.87
2023-03-31T23:34:57.504Z,83.67
2023-03-31T23:37:25.246Z,77.43
2023-03-31T23:39:52.999Z,65.60
2023-03-31T23:42:22.121Z,66.40
2023-03-31T23:44:49.744Z,62.33
2023-03-31T23:47:17.347Z,70.77
2023-03-31T23:49:45.024Z,59.03
2023-03-31T23:52:12.626Z,55.27
2023-03-31T23:54:40.301Z,52.20
2023-03-31T23:57:08.239Z,49.73
2023-03-31T23:59:37.385Z,47.70
